createdAt,value
2022-08-23T00:05:59.887Z,22.00
2022-08-23T00:12:19.915Z,22.00
2022-08-23T00:18:22.923Z,22.00
2022-08-23T00:24:28.070Z,22.00
2022-08-23T00:30:30.164Z,22.00
2022-08-23T00:36:32.163Z,21.80
2022-08-23T00:43:15.968Z,21.90
2022-08-23T00:49:19.187Z,21.90
2022-08-23T00:55:21.918Z,21.90
2022-08-23T01:01:24.730Z,21.80
2022-08-23T01:07:51.808Z,21.80
2022-08-23T01:14:00.488Z,21.80
2022-08-23T01:20:07.766Z,21.70
2022-08-23T01:26:21.715Z,21.60
2022-08-23T01:32:25.808Z,21.70
2022-08-23T01:38:28.187Z,21.60
2022-08-23T01:44:35.473Z,21.60
2022-08-23T01:50:39.606Z,21.60
2022-08-23T01:56:42.861Z,21.50
2022-08-23T02:02:47.212Z,21.60
2022-08-23T02:09:01.141Z,21.50
2022-08-23T02:15:06.317Z,21.40
2022-08-23T02:21:10.449Z,21.40
2022-08-23T02:27:15.462Z,21.40
2022-08-23T02:33:18.277Z,21.30
2022-08-23T02:39:20.486Z,21.40
2022-08-23T02:45:25.403Z,21.30
2022-08-23T02:51:27.278Z,21.30
2022-08-23T02:57:31.578Z,21.40
2022-08-23T03:03:38.079Z,21.30
2022-08-23T03:09:40.222Z,21.30
2022-08-23T03:15:47.446Z,21.30
2022-08-23T03:21:50.070Z,21.30
2022-08-23T03:27:52.700Z,21.30
2022-08-23T03:33:54.927Z,21.40
2022-08-23T03:39:57.177Z,21.30
2022-08-23T03:45:59.860Z,21.30
2022-08-23T03:52:11.182Z,21.30
2022-08-23T03:58:13.683Z,21.30
2022-08-23T04:04:15.873Z,21.20
2022-08-23T04:10:18.193Z,21.30
2022-08-23T04:16:20.388Z,21.30
2022-08-23T04:22:22.764Z,21.30
2022-08-23T04:28:25.159Z,21.30
2022-08-23T04:34:30.399Z,21.30
2022-08-23T04:40:50.777Z,21.30
2022-08-23T04:46:52.742Z,21.30
2022-08-23T04:52:54.762Z,21.30
2022-08-23T04:58:57.014Z,21.30
2022-08-23T05:05:01.224Z,21.30
2022-08-23T05:11:06.334Z,21.20
2022-08-23T05:17:08.370Z,21.20
2022-08-23T05:23:11.257Z,21.20
2022-08-23T05:29:15.942Z,21.10
2022-08-23T05:35:18.025Z,21.10
2022-08-23T05:41:21.278Z,21.00
2022-08-23T05:47:24.784Z,21.00
2022-08-23T05:53:27.417Z,20.90
2022-08-23T05:59:29.582Z,20.90
2022-08-23T06:05:31.954Z,21.10
2022-08-23T06:11:35.170Z,21.20
2022-08-23T06:17:37.766Z,21.30
2022-08-23T06:23:40.802Z,21.50
2022-08-23T06:29:43.025Z,21.60
2022-08-23T06:35:44.943Z,21.70
2022-08-23T06:41:50.478Z,21.80
2022-08-23T06:47:52.461Z,21.90
2022-08-23T06:53:56.601Z,22.10
2022-08-23T06:59:58.417Z,22.20
2022-08-23T07:06:00.239Z,22.30
2022-08-23T07:12:02.887Z,22.30
2022-08-23T07:18:06.644Z,22.50
2022-08-23T07:24:13.878Z,22.50
2022-08-23T07:30:15.847Z,22.70
2022-08-23T07:36:20.037Z,22.80
2022-08-23T07:42:24.226Z,23.00
2022-08-23T07:48:52.420Z,23.20
2022-08-23T07:54:51.980Z,23.20
2022-08-23T08:00:57.328Z,23.30
2022-08-23T08:07:18.797Z,23.40
2022-08-23T08:13:22.545Z,23.60
2022-08-23T08:19:24.731Z,23.80
2022-08-23T08:25:26.950Z,23.90
2022-08-23T08:31:30.306Z,24.10
2022-08-23T08:37:32.575Z,24.20
2022-08-23T08:43:43.128Z,24.30
2022-08-23T08:49:51.410Z,24.60
2022-08-23T08:56:01.375Z,24.70
2022-08-23T09:02:05.848Z,24.70
2022-08-23T09:08:55.546Z,25.00
2022-08-23T09:15:14.319Z,25.10
2022-08-23T09:21:17.931Z,25.30
2022-08-23T09:27:20.391Z,25.60
2022-08-23T09:33:26.309Z,25.70
2022-08-23T09:39:34.531Z,25.80
2022-08-23T09:45:40.741Z,26.00
2022-08-23T09:51:48.364Z,26.30
2022-08-23T09:57:53.266Z,26.60
2022-08-23T10:04:14.872Z,26.60
2022-08-23T10:10:36.140Z,27.10
2022-08-23T10:17:01.712Z,27.10
2022-08-23T10:23:35.627Z,27.20
2022-08-23T10:29:43.359Z,27.30
2022-08-23T10:36:09.170Z,27.40
2022-08-23T10:42:22.854Z,27.50
2022-08-23T10:48:32.174Z,27.70
2022-08-23T10:54:50.207Z,27.90
2022-08-23T11:00:54.541Z,28.20
2022-08-23T11:06:59.534Z,28.30
2022-08-23T11:13:15.867Z,28.60
2022-08-23T11:19:52.752Z,28.80
2022-08-23T11:25:54.887Z,28.90
2022-08-23T11:32:25.864Z,29.20
2022-08-23T11:38:50.421Z,29.00
2022-08-23T11:44:54.179Z,28.80
2022-08-23T11:51:38.870Z,29.00
2022-08-23T11:58:18.958Z,29.20
2022-08-23T12:04:27.230Z,29.60
2022-08-23T12:10:41.271Z,29.80
2022-08-23T12:16:49.805Z,30.10
2022-08-23T12:23:16.723Z,30.30
2022-08-23T12:29:42.792Z,30.30
2022-08-23T12:36:23.215Z,30.10
2022-08-23T12:42:28.782Z,29.90
2022-08-23T12:48:33.727Z,30.10
2022-08-23T12:54:44.866Z,30.20
2022-08-23T13:00:57.422Z,30.30
2022-08-23T13:07:03.994Z,30.30
2022-08-23T13:13:08.570Z,30.20
2022-08-23T13:19:17.434Z,30.60
2022-08-23T13:25:45.629Z,30.90
2022-08-23T13:32:03.128Z,30.60
2022-08-23T13:38:20.928Z,30.30
2022-08-23T13:44:24.782Z,30.70
2022-08-23T13:50:32.674Z,30.70
2022-08-23T13:57:00.840Z,30.50
2022-08-23T14:03:05.153Z,30.40
2022-08-23T14:09:08.212Z,30.50
2022-08-23T14:15:12.012Z,30.50
2022-08-23T14:21:15.216Z,30.50
2022-08-23T14:27:17.413Z,29.90
2022-08-23T14:33:22.865Z,30.50
2022-08-23T14:39:24.710Z,30.70
2022-08-23T14:45:28.732Z,30.80
2022-08-23T14:51:37.051Z,30.30
2022-08-23T14:57:45.577Z,30.70
2022-08-23T15:03:48.048Z,30.70
2022-08-23T15:09:51.100Z,30.10
2022-08-23T15:15:53.792Z,29.90
2022-08-23T15:21:56.209Z,29.60
2022-08-23T15:27:58.192Z,29.30
2022-08-23T15:34:00.438Z,29.00
2022-08-23T15:40:03.730Z,28.80
2022-08-23T15:46:08.778Z,28.70
2022-08-23T15:52:10.678Z,28.60
2022-08-23T15:58:22.550Z,28.80
2022-08-23T16:04:24.429Z,29.60
2022-08-23T16:10:26.284Z,30.10
2022-08-23T16:16:34.197Z,29.70
2022-08-23T16:22:36.619Z,29.40
2022-08-23T16:28:38.430Z,29.10
2022-08-23T16:34:40.633Z,28.80
2022-08-23T16:40:44.923Z,28.70
2022-08-23T16:46:47.901Z,28.40
2022-08-23T16:52:49.726Z,28.30
2022-08-23T16:58:52.898Z,28.20
2022-08-23T17:04:56.264Z,28.10
2022-08-23T17:11:02.950Z,28.00
2022-08-23T17:17:05.428Z,27.90
2022-08-23T17:23:08.591Z,27.80
2022-08-23T17:29:12.362Z,27.70
2022-08-23T17:35:16.097Z,27.60
2022-08-23T17:41:18.132Z,27.50
2022-08-23T17:47:20.400Z,27.40
2022-08-23T17:53:23.289Z,27.30
2022-08-23T17:59:25.378Z,27.20
2022-08-23T18:05:29.606Z,27.10
2022-08-23T18:11:32.027Z,27.10
2022-08-23T18:17:34.934Z,27.00
2022-08-23T18:23:36.928Z,26.80
2022-08-23T18:29:39.196Z,26.60
2022-08-23T18:35:42.150Z,26.40
2022-08-23T18:41:44.330Z,26.20
2022-08-23T18:47:46.461Z,26.10
2022-08-23T18:53:48.357Z,26.20
2022-08-23T18:59:50.659Z,26.10
2022-08-23T19:05:52.926Z,26.00
2022-08-23T19:11:55.071Z,25.90
2022-08-23T19:17:59.734Z,25.80
2022-08-23T19:24:01.921Z,25.80
2022-08-23T19:30:05.576Z,25.70
2022-08-23T19:36:18.958Z,25.30
2022-08-23T19:42:36.723Z,25.20
2022-08-23T19:48:38.851Z,25.00
2022-08-23T19:54:40.880Z,25.00
2022-08-23T20:00:43.433Z,24.90
2022-08-23T20:06:45.821Z,24.90
2022-08-23T20:12:47.761Z,24.90
2022-08-23T20:18:51.620Z,24.80
2022-08-23T20:24:53.616Z,24.70
2022-08-23T20:30:55.547Z,24.60
2022-08-23T20:36:57.463Z,24.50
2022-08-23T20:43:00.523Z,24.50
2022-08-23T20:49:02.899Z,24.50
2022-08-23T20:55:09.561Z,24.40
2022-08-23T21:01:14.516Z,24.60
2022-08-23T21:07:16.627Z,24.50
2022-08-23T21:13:18.702Z,24.30
2022-08-23T21:19:20.892Z,24.10
2022-08-23T21:25:23.256Z,24.10
2022-08-23T21:31:26.651Z,24.00
2022-08-23T21:37:29.308Z,23.90
2022-08-23T21:43:32.700Z,24.00
2022-08-23T21:49:35.359Z,24.00
2022-08-23T21:55:37.359Z,23.80
2022-08-23T22:01:40.031Z,23.80
2022-08-23T22:07:42.391Z,23.90
2022-08-23T22:13:45.326Z,23.90
2022-08-23T22:19:47.153Z,23.90
2022-08-23T22:25:52.315Z,23.90
2022-08-23T22:31:54.318Z,23.80
2022-08-23T22:38:12.906Z,23.80
2022-08-23T22:44:19.291Z,23.70
2022-08-23T22:50:22.277Z,23.70
2022-08-23T22:56:29.166Z,23.70
2022-08-23T23:02:32.328Z,23.60
2022-08-23T23:08:34.292Z,23.60
2022-08-23T23:14:36.200Z,23.60
2022-08-23T23:20:39.408Z,23.50
2022-08-23T23:26:42.252Z,23.50
2022-08-23T23:32:49.412Z,23.50
2022-08-23T23:38:55.015Z,23.50
2022-08-23T23:44:59.860Z,23.40
2022-08-23T23:51:05.220Z,23.30
2022-08-23T23:57:07.438Z,23.30
